createdAt,value
2023-04-17T00:01:00.684Z,14.02
2023-04-17T00:03:27.189Z,14.70
2023-04-17T00:05:54.030Z,13.32
2023-04-17T00:08:20.522Z,14.73
2023-04-17T00:10:51.207Z,14.30
2023-04-17T00:13:26.838Z,14.43
2023-04-17T00:15:53.239Z,15.20
2023-04-17T00:18:19.727Z,14.80
2023-04-17T00:20:46.159Z,15.38
2023-04-17T00:23:12.567Z,15.65
2023-04-17T00:25:38.983Z,16.17
2023-04-17T00:28:05.628Z,15.02
2023-04-17T00:30:32.027Z,15.82
2023-04-17T00:32:58.486Z,15.52
2023-04-17T00:35:24.965Z,15.80
2023-04-17T00:37:51.495Z,16.30
2023-04-17T00:40:18.107Z,16.30
2023-04-17T00:42:52.916Z,15.88
2023-04-17T00:45:20.598Z,16.27
2023-04-17T00:47:48.778Z,15.75
2023-04-17T00:50:15.398Z,16.92
2023-04-17T00:52:41.803Z,17.05
2023-04-17T00:55:08.503Z,16.50
2023-04-17T00:57:34.909Z,15.57
2023-04-17T01:00:01.488Z,17.75
2023-04-17T01:02:28.267Z,16.42
2023-04-17T01:04:54.940Z,17.35
2023-04-17T01:07:21.797Z,17.20
2023-04-17T01:09:48.452Z,16.80
2023-04-17T01:12:22.576Z,17.10
2023-04-17T01:14:55.992Z,17.02
2023-04-17T01:17:23.523Z,17.30
2023-04-17T01:19:49.974Z,17.10
2023-04-17T01:22:16.617Z,17.45
2023-04-17T01:24:43.563Z,17.33
2023-04-17T01:27:10.028Z,17.98
2023-04-17T01:29:36.714Z,16.85
2023-04-17T01:32:03.194Z,18.48
2023-04-17T01:34:29.624Z,17.80
2023-04-17T01:36:56.032Z,18.00
2023-04-17T01:39:22.482Z,17.38
2023-04-17T01:41:48.955Z,16.90
2023-04-17T01:44:15.391Z,17.42
2023-04-17T01:46:41.866Z,17.38
2023-04-17T01:49:08.353Z,16.58
2023-04-17T01:51:34.772Z,17.67
2023-04-17T01:54:01.196Z,16.17
2023-04-17T01:56:27.881Z,16.42
2023-04-17T01:58:54.327Z,17.13
2023-04-17T02:01:20.932Z,18.05
2023-04-17T02:03:47.657Z,17.50
2023-04-17T02:06:15.100Z,17.20
2023-04-17T02:08:43.957Z,18.60
2023-04-17T02:11:10.490Z,16.60
2023-04-17T02:13:36.905Z,17.58
2023-04-17T02:16:03.357Z,17.05
2023-04-17T02:18:29.796Z,17.08
2023-04-17T02:20:56.197Z,17.40
2023-04-17T02:23:22.596Z,17.83
2023-04-17T02:25:48.988Z,15.73
2023-04-17T02:28:15.694Z,17.30
2023-04-17T02:30:42.154Z,17.02
2023-04-17T02:33:08.864Z,18.08
2023-04-17T02:35:35.369Z,17.63
2023-04-17T02:38:01.990Z,17.83
2023-04-17T02:40:28.406Z,16.42
2023-04-17T02:47:19.246Z,16.63
2023-04-17T02:49:45.873Z,17.75
2023-04-17T02:52:12.287Z,17.63
2023-04-17T02:54:38.704Z,17.13
2023-04-17T02:57:06.491Z,18.27
2023-04-17T02:59:32.915Z,16.33
2023-04-17T03:01:59.790Z,18.35
2023-04-17T03:04:28.024Z,17.42
2023-04-17T03:06:54.441Z,17.10
2023-04-17T03:09:22.374Z,17.20
2023-04-17T03:11:49.013Z,18.83
2023-04-17T03:14:15.667Z,18.55
2023-04-17T03:16:42.629Z,17.48
2023-04-17T03:19:09.414Z,17.30
2023-04-17T03:21:36.457Z,17.55
2023-04-17T03:24:03.710Z,17.85
2023-04-17T03:26:30.804Z,17.00
2023-04-17T03:29:00.528Z,18.35
2023-04-17T03:31:27.899Z,18.75
2023-04-17T03:33:54.403Z,17.45
2023-04-17T03:36:25.081Z,18.50
2023-04-17T03:41:32.424Z,19.38
2023-04-17T03:43:58.888Z,20.02
2023-04-17T03:46:25.518Z,19.05
2023-04-17T03:48:52.886Z,18.40
2023-04-17T03:51:19.345Z,20.70
2023-04-17T03:53:47.559Z,17.60
2023-04-17T03:56:14.368Z,19.98
2023-04-17T03:58:43.673Z,19.42
2023-04-17T04:01:12.593Z,18.60
2023-04-17T04:03:49.040Z,19.88
2023-04-17T04:06:20.202Z,18.85
2023-04-17T04:08:47.392Z,20.38
2023-04-17T04:11:13.950Z,19.10
2023-04-17T04:13:40.703Z,18.73
2023-04-17T04:16:08.072Z,19.40
2023-04-17T04:18:37.670Z,18.33
2023-04-17T04:21:05.752Z,21.48
2023-04-17T04:23:37.774Z,15.02
2023-04-17T04:26:04.239Z,17.67
2023-04-17T04:28:39.778Z,20.77
2023-04-17T04:31:14.834Z,20.38
2023-04-17T04:33:41.404Z,20.70
2023-04-17T04:36:07.885Z,21.38
2023-04-17T04:38:35.367Z,21.65
2023-04-17T04:41:14.824Z,19.45
2023-04-17T04:43:41.824Z,21.08
2023-04-17T04:46:10.537Z,19.75
2023-04-17T04:48:42.837Z,20.55
2023-04-17T04:51:09.544Z,21.30
2023-04-17T04:53:37.114Z,21.45
2023-04-17T04:56:04.144Z,19.98
2023-04-17T04:58:31.722Z,19.15
2023-04-17T05:01:00.829Z,21.42
2023-04-17T05:03:37.308Z,22.00
2023-04-17T05:06:05.863Z,22.50
2023-04-17T05:08:40.701Z,21.80
2023-04-17T05:11:10.599Z,21.10
2023-04-17T05:13:37.422Z,22.88
2023-04-17T05:16:03.882Z,22.80
2023-04-17T05:18:30.980Z,22.15
2023-04-17T05:20:57.903Z,22.67
2023-04-17T05:23:26.353Z,21.80
2023-04-17T05:25:52.788Z,22.08
2023-04-17T05:28:19.222Z,21.98
2023-04-17T05:30:45.985Z,21.80
2023-04-17T05:33:18.500Z,22.98
2023-04-17T05:35:56.011Z,23.52
2023-04-17T05:38:23.171Z,23.73
2023-04-17T05:40:49.632Z,23.95
2023-04-17T05:43:16.537Z,23.08
2023-04-17T05:45:43.002Z,25.25
2023-04-17T05:48:09.412Z,24.08
2023-04-17T05:50:37.373Z,24.90
2023-04-17T05:53:04.930Z,24.60
2023-04-17T05:55:35.820Z,25.60
2023-04-17T05:58:20.424Z,24.10
2023-04-17T06:00:50.792Z,26.85
2023-04-17T06:03:19.372Z,25.42
2023-04-17T06:05:49.320Z,26.00
2023-04-17T06:08:16.269Z,24.88
2023-04-17T06:10:45.549Z,25.52
2023-04-17T06:13:11.990Z,28.23
2023-04-17T06:15:42.897Z,28.67
2023-04-17T06:18:09.833Z,27.88
2023-04-17T06:20:38.672Z,26.38
2023-04-17T06:23:06.378Z,29.63
2023-04-17T06:25:32.797Z,28.65
2023-04-17T06:27:59.238Z,28.17
2023-04-17T06:30:25.712Z,28.60
2023-04-17T06:32:54.169Z,27.95
2023-04-17T06:35:20.867Z,27.70
2023-04-17T06:37:52.284Z,26.92
2023-04-17T06:40:18.902Z,28.33
2023-04-17T06:42:45.323Z,29.38
2023-04-17T06:45:17.580Z,28.25
2023-04-17T06:47:46.440Z,28.42
2023-04-17T06:50:16.907Z,25.90
2023-04-17T06:52:43.326Z,28.65
2023-04-17T06:55:10.243Z,27.52
2023-04-17T06:57:36.784Z,28.45
2023-04-17T07:00:03.998Z,26.85
2023-04-17T07:02:30.706Z,29.50
2023-04-17T07:04:57.444Z,27.08
2023-04-17T07:07:24.136Z,28.65
2023-04-17T07:09:50.558Z,29.58
2023-04-17T07:12:16.969Z,27.25
2023-04-17T07:14:43.382Z,27.63
2023-04-17T07:17:10.012Z,29.35
2023-04-17T07:19:37.564Z,29.35
2023-04-17T07:22:05.711Z,28.08
2023-04-17T07:24:34.942Z,29.17
2023-04-17T07:27:02.876Z,28.38
2023-04-17T07:29:29.410Z,27.92
2023-04-17T07:31:55.971Z,27.83
2023-04-17T07:34:25.081Z,27.48
2023-04-17T07:36:54.537Z,26.48
2023-04-17T07:39:21.011Z,27.27
2023-04-17T07:41:47.443Z,27.15
2023-04-17T07:44:13.828Z,28.65
2023-04-17T07:46:41.294Z,26.02
2023-04-17T07:49:11.437Z,25.77
2023-04-17T07:51:41.044Z,26.65
2023-04-17T07:54:07.596Z,25.50
2023-04-17T07:56:34.522Z,26.52
2023-04-17T07:59:01.029Z,25.35
2023-04-17T08:01:27.714Z,25.52
2023-04-17T08:03:55.534Z,25.42
2023-04-17T08:06:22.162Z,25.58
2023-04-17T08:08:48.565Z,23.50
2023-04-17T08:11:15.093Z,26.30
2023-04-17T08:13:41.879Z,26.20
2023-04-17T08:16:09.872Z,25.25
2023-04-17T08:18:37.701Z,24.98
2023-04-17T08:21:04.445Z,26.58
2023-04-17T08:23:31.339Z,28.80
2023-04-17T08:25:58.282Z,24.88
2023-04-17T08:28:25.105Z,26.90
2023-04-17T08:30:52.014Z,25.00
2023-04-17T08:33:18.677Z,25.95
2023-04-17T08:35:45.329Z,26.02
2023-04-17T08:38:14.719Z,25.50
2023-04-17T08:40:48.910Z,25.30
2023-04-17T08:43:16.512Z,26.15
2023-04-17T08:45:56.538Z,25.27
2023-04-17T08:48:23.904Z,25.27
2023-04-17T08:50:52.127Z,21.00
2023-04-17T08:53:19.714Z,25.90
2023-04-17T08:55:47.209Z,22.38
2023-04-17T08:58:14.625Z,22.30
2023-04-17T09:00:43.312Z,22.30
2023-04-17T09:03:12.240Z,23.83
2023-04-17T09:05:42.644Z,22.42
2023-04-17T09:08:15.760Z,19.03
2023-04-17T09:10:44.702Z,19.65
2023-04-17T09:13:14.568Z,21.30
2023-04-17T09:15:42.123Z,19.65
2023-04-17T09:18:32.895Z,17.77
2023-04-17T09:21:04.002Z,17.67
2023-04-17T09:23:45.400Z,15.27
2023-04-17T09:26:13.933Z,16.67
2023-04-17T09:28:40.901Z,15.75
2023-04-17T09:31:26.201Z,16.70
2023-04-17T09:33:59.838Z,15.50
2023-04-17T09:36:31.255Z,15.40
2023-04-17T09:39:00.813Z,16.98
2023-04-17T09:41:29.148Z,17.50
2023-04-17T09:44:00.972Z,17.20
2023-04-17T09:46:31.006Z,17.20
2023-04-17T09:49:01.843Z,16.80
2023-04-17T09:51:29.350Z,14.27
2023-04-17T09:53:58.820Z,14.20
2023-04-17T09:56:27.997Z,16.73
2023-04-17T09:58:54.472Z,15.63
2023-04-17T10:01:21.325Z,15.63
2023-04-17T10:03:48.702Z,15.20
2023-04-17T10:06:15.706Z,15.20
2023-04-17T10:08:42.683Z,14.73
2023-04-17T10:11:09.351Z,13.43
2023-04-17T10:13:38.695Z,13.88
2023-04-17T10:16:05.918Z,16.20
2023-04-17T10:18:32.884Z,13.88
2023-04-17T10:21:19.882Z,14.55
2023-04-17T10:23:46.332Z,14.40
2023-04-17T10:26:24.826Z,14.00
2023-04-17T10:28:57.625Z,13.05
2023-04-17T10:32:02.571Z,13.73
2023-04-17T10:34:36.146Z,12.88
2023-04-17T10:37:03.145Z,14.88
2023-04-17T10:39:49.999Z,13.13
2023-04-17T10:42:21.153Z,13.55
2023-04-17T10:44:48.745Z,12.80
2023-04-17T10:47:15.777Z,13.32
2023-04-17T10:49:52.197Z,13.57
2023-04-17T10:52:40.562Z,14.50
2023-04-17T10:55:17.659Z,12.52
2023-04-17T10:58:11.870Z,13.70
2023-04-17T11:00:49.779Z,12.38
2023-04-17T11:03:16.904Z,13.57
2023-04-17T11:05:47.300Z,12.23
2023-04-17T11:08:14.298Z,11.70
2023-04-17T11:10:41.208Z,12.25
2023-04-17T11:13:07.633Z,12.95
2023-04-17T11:15:35.213Z,12.80
2023-04-17T11:18:03.308Z,12.15
2023-04-17T11:20:32.301Z,13.65
2023-04-17T11:23:03.137Z,12.13
2023-04-17T11:25:31.634Z,13.65
2023-04-17T11:27:59.441Z,12.00
2023-04-17T11:30:30.848Z,12.57
2023-04-17T11:32:58.816Z,13.27
2023-04-17T11:35:33.923Z,13.57
2023-04-17T11:38:11.482Z,13.50
2023-04-17T11:40:52.248Z,12.63
2023-04-17T11:43:23.619Z,12.23
2023-04-17T11:45:52.088Z,12.48
2023-04-17T11:48:23.392Z,11.20
2023-04-17T11:50:50.039Z,11.20
2023-04-17T11:53:17.258Z,13.27
2023-04-17T11:55:44.985Z,12.93
2023-04-17T11:58:13.132Z,11.95
2023-04-17T12:00:40.752Z,12.23
2023-04-17T12:03:34.488Z,11.88
2023-04-17T12:06:03.011Z,12.32
2023-04-17T12:08:30.351Z,12.10
2023-04-17T12:10:57.856Z,12.30
2023-04-17T12:13:24.399Z,11.73
2023-04-17T12:15:51.069Z,13.30
2023-04-17T12:18:17.517Z,11.88
2023-04-17T12:20:43.944Z,12.20
2023-04-17T12:23:10.469Z,12.55
2023-04-17T12:25:36.864Z,12.15
2023-04-17T12:28:04.934Z,12.02
2023-04-17T12:30:31.988Z,12.85
2023-04-17T12:32:58.455Z,12.45
2023-04-17T12:35:24.901Z,12.38
2023-04-17T12:37:51.349Z,10.68
2023-04-17T12:40:20.446Z,11.57
2023-04-17T12:42:49.538Z,11.40
2023-04-17T12:45:16.975Z,10.45
2023-04-17T12:47:43.611Z,10.70
2023-04-17T12:50:11.835Z,12.18
2023-04-17T12:52:39.404Z,9.77
2023-04-17T12:55:07.586Z,12.50
2023-04-17T12:57:35.677Z,12.48
2023-04-17T13:00:02.622Z,12.07
2023-04-17T13:02:29.257Z,11.38
2023-04-17T13:04:56.315Z,12.68
2023-04-17T13:07:22.941Z,13.80
2023-04-17T13:09:49.355Z,13.52
2023-04-17T13:12:16.435Z,14.48
2023-04-17T13:14:42.881Z,14.85
2023-04-17T13:17:09.333Z,14.27
2023-04-17T13:19:36.006Z,17.23
2023-04-17T13:22:02.481Z,16.88
2023-04-17T13:24:28.946Z,17.45
2023-04-17T13:26:58.106Z,17.80
2023-04-17T13:29:24.880Z,16.83
2023-04-17T13:31:51.627Z,17.17
2023-04-17T13:34:18.060Z,18.17
2023-04-17T13:36:45.043Z,17.33
2023-04-17T13:39:12.196Z,18.08
2023-04-17T13:41:39.393Z,16.83
2023-04-17T13:44:05.937Z,15.60
2023-04-17T13:46:33.184Z,14.55
2023-04-17T13:49:00.445Z,15.13
2023-04-17T13:51:27.421Z,15.05
2023-04-17T13:53:53.936Z,13.55
2023-04-17T13:56:23.290Z,14.82
2023-04-17T13:58:50.388Z,14.13
2023-04-17T14:01:17.358Z,14.10
2023-04-17T14:03:45.859Z,15.35
2023-04-17T14:06:12.891Z,13.73
2023-04-17T14:08:41.776Z,13.45
2023-04-17T14:11:09.341Z,14.63
2023-04-17T14:13:35.760Z,14.98
2023-04-17T14:16:02.288Z,17.25
2023-04-17T14:18:28.722Z,16.27
2023-04-17T14:20:55.429Z,17.08
2023-04-17T14:23:30.435Z,17.33
2023-04-17T14:25:56.854Z,17.85
2023-04-17T14:28:23.817Z,19.35
2023-04-17T14:30:50.544Z,17.90
2023-04-17T14:33:16.987Z,18.00
2023-04-17T14:35:43.396Z,18.35
2023-04-17T14:38:09.807Z,18.35
2023-04-17T14:40:36.224Z,18.63
2023-04-17T14:43:02.638Z,19.33
2023-04-17T14:45:29.516Z,18.48
2023-04-17T14:47:56.005Z,18.75
2023-04-17T14:50:22.582Z,20.20
2023-04-17T14:52:48.973Z,21.27
2023-04-17T14:55:15.423Z,18.92
2023-04-17T14:57:41.816Z,21.17
2023-04-17T15:00:08.712Z,20.55
2023-04-17T15:02:38.430Z,19.90
2023-04-17T15:05:06.586Z,19.77
2023-04-17T15:07:33.144Z,19.27
2023-04-17T15:09:59.692Z,20.20
2023-04-17T15:12:26.392Z,19.05
2023-04-17T15:14:53.064Z,20.08
2023-04-17T15:17:19.809Z,18.80
2023-04-17T15:19:57.417Z,18.90
2023-04-17T15:22:27.300Z,16.47
2023-04-17T15:24:54.149Z,19.40
2023-04-17T15:27:20.646Z,18.00
2023-04-17T15:29:47.061Z,18.77
2023-04-17T15:32:13.551Z,17.52
2023-04-17T15:34:40.317Z,17.63
2023-04-17T15:37:07.334Z,16.77
2023-04-17T15:39:38.238Z,16.45
2023-04-17T15:42:08.544Z,15.90
2023-04-17T15:44:35.314Z,16.98
2023-04-17T15:47:02.045Z,15.90
2023-04-17T15:49:29.765Z,14.93
2023-04-17T15:51:56.347Z,14.65
2023-04-17T15:54:22.903Z,14.60
2023-04-17T15:56:49.339Z,14.63
2023-04-17T15:59:15.908Z,14.90
2023-04-17T16:01:42.359Z,14.68
2023-04-17T16:04:09.117Z,14.05
2023-04-17T16:06:35.734Z,15.50
2023-04-17T16:09:02.352Z,13.10
2023-04-17T16:11:28.827Z,13.55
2023-04-17T16:13:55.217Z,12.85
2023-04-17T16:16:21.634Z,13.65
2023-04-17T16:18:51.121Z,15.77
2023-04-17T16:21:17.550Z,13.02
2023-04-17T16:23:45.718Z,15.40
2023-04-17T16:26:14.037Z,13.82
2023-04-17T16:28:40.553Z,14.02
2023-04-17T16:31:07.053Z,14.43
2023-04-17T16:33:33.481Z,14.27
2023-04-17T16:35:59.888Z,15.18
2023-04-17T16:38:27.560Z,15.73
2023-04-17T16:40:56.935Z,13.82
2023-04-17T16:43:23.402Z,12.77
2023-04-17T16:45:50.033Z,12.55
2023-04-17T16:48:16.669Z,13.05
2023-04-17T16:50:43.154Z,13.30
2023-04-17T16:53:09.570Z,11.50
2023-04-17T16:55:36.528Z,10.30
2023-04-17T16:58:04.352Z,10.82
2023-04-17T17:00:31.344Z,11.23
2023-04-17T17:02:57.807Z,12.00
2023-04-17T17:05:24.554Z,13.23
2023-04-17T17:07:55.250Z,13.70
2023-04-17T17:10:21.656Z,14.23
2023-04-17T17:12:48.076Z,13.30
2023-04-17T17:15:14.467Z,13.85
2023-04-17T17:17:41.009Z,15.40
2023-04-17T17:20:08.126Z,13.93
2023-04-17T17:22:34.517Z,14.85
2023-04-17T17:25:00.930Z,14.82
2023-04-17T17:27:27.350Z,14.07
2023-04-17T17:29:59.021Z,12.88
2023-04-17T17:32:26.756Z,14.23
2023-04-17T17:34:53.191Z,15.07
2023-04-17T17:37:19.981Z,14.45
2023-04-17T17:39:46.397Z,15.07
2023-04-17T17:42:12.792Z,15.27
2023-04-17T17:44:40.231Z,15.25
2023-04-17T17:47:08.137Z,16.02
2023-04-17T17:49:34.674Z,15.23
2023-04-17T17:52:01.074Z,15.65
2023-04-17T17:54:27.482Z,16.17
2023-04-17T17:56:53.902Z,15.95
2023-04-17T17:59:21.410Z,16.05
2023-04-17T18:01:47.894Z,15.23
2023-04-17T18:04:14.612Z,16.23
2023-04-17T18:06:41.372Z,15.30
2023-04-17T18:09:07.782Z,15.27
2023-04-17T18:11:34.204Z,15.35
2023-04-17T18:14:00.801Z,16.05
2023-04-17T18:16:31.428Z,16.73
2023-04-17T18:18:59.759Z,16.73
2023-04-17T18:21:27.135Z,15.07
2023-04-17T18:23:53.530Z,16.25
2023-04-17T18:26:19.966Z,16.00
2023-04-17T18:28:46.372Z,17.60
2023-04-17T18:31:12.846Z,17.70
2023-04-17T18:33:39.286Z,16.52
2023-04-17T18:36:14.795Z,16.55
2023-04-17T18:38:44.151Z,17.67
2023-04-17T18:41:13.516Z,16.55
2023-04-17T18:43:39.905Z,17.10
2023-04-17T18:46:07.622Z,18.20
2023-04-17T18:48:34.584Z,18.50
2023-04-17T18:51:14.707Z,18.60
2023-04-17T18:53:41.257Z,18.25
2023-04-17T18:56:08.541Z,18.58
2023-04-17T18:58:34.964Z,19.17
2023-04-17T19:01:01.385Z,20.23
2023-04-17T19:03:27.875Z,20.00
2023-04-17T19:05:54.408Z,20.65
2023-04-17T19:08:20.808Z,20.77
2023-04-17T19:10:49.878Z,19.75
2023-04-17T19:13:16.304Z,21.00
2023-04-17T19:15:42.706Z,21.95
2023-04-17T19:18:09.616Z,20.00
2023-04-17T19:20:36.663Z,21.67
2023-04-17T19:23:03.641Z,22.80
2023-04-17T19:25:30.068Z,21.70
2023-04-17T19:27:56.486Z,22.15
2023-04-17T19:30:22.871Z,22.65
2023-04-17T19:32:49.324Z,23.25
2023-04-17T19:35:15.740Z,23.63
2023-04-17T19:37:43.360Z,23.63
2023-04-17T19:40:21.412Z,22.45
2023-04-17T19:42:50.444Z,22.55
2023-04-17T19:45:17.292Z,23.02
2023-04-17T19:47:46.609Z,22.15
2023-04-17T19:50:13.021Z,21.75
2023-04-17T19:52:39.935Z,22.92
2023-04-17T19:55:09.408Z,23.02
2023-04-17T19:57:36.321Z,23.38
2023-04-17T20:00:02.892Z,22.88
2023-04-17T20:02:39.088Z,22.23
2023-04-17T20:05:06.129Z,23.42
2023-04-17T20:07:32.595Z,23.30
2023-04-17T20:09:58.986Z,23.40
2023-04-17T20:12:25.457Z,23.38
2023-04-17T20:14:54.754Z,22.55
2023-04-17T20:17:21.205Z,22.38
2023-04-17T20:19:47.665Z,23.40
2023-04-17T20:22:14.067Z,24.30
2023-04-17T20:24:40.488Z,23.55
2023-04-17T20:27:06.896Z,22.90
2023-04-17T20:29:33.301Z,24.35
2023-04-17T20:32:01.317Z,23.15
2023-04-17T20:34:34.774Z,24.48
2023-04-17T20:37:01.926Z,25.20
2023-04-17T20:39:29.022Z,24.33
2023-04-17T20:41:55.522Z,24.70
2023-04-17T20:44:22.157Z,24.83
2023-04-17T20:46:48.649Z,25.08
2023-04-17T20:49:15.081Z,23.48
2023-04-17T20:51:41.500Z,24.48
2023-04-17T20:54:07.952Z,23.13
2023-04-17T20:56:34.568Z,23.05
2023-04-17T20:59:01.123Z,22.85
2023-04-17T21:01:27.600Z,22.55
2023-04-17T21:03:54.203Z,22.95
2023-04-17T21:06:22.834Z,24.00
2023-04-17T21:08:49.328Z,24.25
2023-04-17T21:11:15.886Z,24.17
2023-04-17T21:13:42.291Z,22.33
2023-04-17T21:16:11.861Z,25.35
2023-04-17T21:18:38.481Z,22.02
2023-04-17T21:21:05.010Z,22.13
2023-04-17T21:23:31.428Z,22.67
2023-04-17T21:25:57.834Z,22.88
2023-04-17T21:28:24.225Z,22.58
2023-04-17T21:30:50.636Z,23.85
2023-04-17T21:33:17.061Z,21.75
2023-04-17T21:35:43.453Z,23.05
2023-04-17T21:38:09.871Z,23.10
2023-04-17T21:40:37.180Z,23.20
2023-04-17T21:43:03.749Z,23.77
2023-04-17T21:45:31.612Z,23.27
2023-04-17T21:47:58.177Z,23.65
2023-04-17T21:50:24.622Z,22.67
2023-04-17T21:52:51.010Z,22.88
2023-04-17T21:55:17.409Z,22.95
2023-04-17T21:57:43.797Z,22.98
2023-04-17T22:00:12.634Z,21.80
2023-04-17T22:02:39.103Z,21.20
2023-04-17T22:05:05.755Z,22.20
2023-04-17T22:07:38.062Z,22.90
2023-04-17T22:10:10.691Z,20.90
2023-04-17T22:12:37.123Z,22.55
2023-04-17T22:15:03.800Z,22.23
2023-04-17T22:17:30.283Z,23.15
2023-04-17T22:19:56.760Z,23.20
2023-04-17T22:22:23.639Z,22.23
2023-04-17T22:24:50.090Z,23.45
2023-04-17T22:27:16.518Z,22.40
2023-04-17T22:29:42.896Z,21.85
2023-04-17T22:32:09.314Z,22.48
2023-04-17T22:34:35.779Z,22.77
2023-04-17T22:37:02.199Z,21.90
2023-04-17T22:39:28.603Z,23.25
2023-04-17T22:41:55.030Z,22.63
2023-04-17T22:44:21.420Z,23.02
2023-04-17T22:46:47.818Z,20.98
2023-04-17T22:49:14.520Z,21.90
2023-04-17T22:51:41.164Z,20.52
2023-04-17T22:54:15.458Z,21.08
2023-04-17T22:56:48.351Z,22.35
2023-04-17T22:59:14.735Z,21.95
2023-04-17T23:01:41.169Z,20.80
2023-04-17T23:04:08.081Z,20.35
2023-04-17T23:06:34.505Z,22.13
2023-04-17T23:09:01.365Z,21.55
2023-04-17T23:11:27.805Z,21.15
2023-04-17T23:13:54.198Z,21.23
2023-04-17T23:16:20.719Z,21.75
2023-04-17T23:18:47.185Z,21.85
2023-04-17T23:21:13.624Z,20.95
2023-04-17T23:23:40.130Z,20.15
2023-04-17T23:26:06.642Z,21.95
2023-04-17T23:28:33.090Z,21.52
2023-04-17T23:31:06.316Z,20.88
2023-04-17T23:33:33.358Z,21.58
2023-04-17T23:35:59.749Z,22.40
2023-04-17T23:38:26.145Z,21.60
2023-04-17T23:40:52.608Z,20.42
2023-04-17T23:43:19.031Z,20.77
2023-04-17T23:45:45.462Z,20.70
2023-04-17T23:48:11.865Z,20.75
2023-04-17T23:50:38.269Z,20.48
2023-04-17T23:53:04.780Z,21.60
2023-04-17T23:55:31.225Z,20.35
2023-04-17T23:57:57.642Z,20.73
